Fort Chipewyan, Canada
Current Conditions -  °F | °C
As of 1:00 AM on Sunday 21 Dec 2014 (Local Time) from CYPY Reporting Station
Clear Clear  
Wind Chill:   Ceiling: Unl
Heat Index: 14°   Visibility: 9mi
Dew Point: 12°   Wind: 7mph
Humidity: 93%   Direction: 80°E
Pressure: 29.47"   Gusts: NA
Location:  58.71°N, 111.15°W
Report Text: CYPY 210800Z AUTO 08006KT 9SM CLR M10/M11 A2947 RMK SLP000
Loading
Personal Weather Stations






























Interactive Weather Map New forecast layout! Learn more

10-Day Weather Forecast

Advertisements
Track Severe Weather on mobile